Time;durP1;ratioP1;P1;durP2;ratioP2;P2;SDS_P1;SDS_P2;PMS_P1;PMS_P2;Temp;Humidity;BMP_temperature;BMP_pressure;BME280_temperature;BME280_humidity;BME280_pressure;Samples;Min_cycle;Max_cycle;Signal;HPM_P1;HPM_P2
2023/07/24 00:01:56;;;;;;;9.18;3.13;;;;;;;17.29;100.00;100305.88;5029981;28;20022;-78
2023/07/24 00:04:21;;;;;;;9.85;2.90;;;;;;;17.28;100.00;100302.31;5029070;28;20028;-79
2023/07/24 00:06:46;;;;;;;7.95;3.05;;;;;;;17.27;100.00;100300.63;5030510;28;20037;-79
2023/07/24 00:09:12;;;;;;;10.40;3.22;;;;;;;17.28;100.00;100291.47;5031985;28;20028;-79
2023/07/24 00:11:37;;;;;;;11.18;3.53;;;;;;;17.30;100.00;100303.00;5030208;28;20484;-79
2023/07/24 00:14:02;;;;;;;10.35;3.35;;;;;;;17.31;100.00;100293.00;5030460;28;20488;-79
2023/07/24 00:16:28;;;;;;;9.68;3.45;;;;;;;17.30;100.00;100283.13;5030793;28;20045;-79
2023/07/24 00:18:53;;;;;;;11.40;3.50;;;;;;;17.31;100.00;100284.84;5032621;28;20029;-79
2023/07/24 00:21:18;;;;;;;10.32;3.55;;;;;;;17.33;100.00;100281.97;5031860;28;20084;-79
2023/07/24 00:23:44;;;;;;;10.85;3.38;;;;;;;17.33;100.00;100284.69;5031750;28;20079;-79
2023/07/24 00:26:09;;;;;;;10.05;3.33;;;;;;;17.32;100.00;100281.13;5033296;28;20099;-79
2023/07/24 00:28:34;;;;;;;16.77;4.45;;;;;;;17.32;100.00;100272.97;5030316;28;20404;-79
2023/07/24 00:31:00;;;;;;;9.18;3.40;;;;;;;17.32;100.00;100269.38;5030495;28;20049;-79
2023/07/24 00:33:25;;;;;;;10.48;3.60;;;;;;;17.31;100.00;100265.84;5029898;28;20025;-79
2023/07/24 00:35:50;;;;;;;11.05;3.58;;;;;;;17.30;100.00;100264.13;5029855;28;20036;-79
2023/07/24 00:38:16;;;;;;;13.68;4.15;;;;;;;17.30;100.00;100259.53;5030026;28;20037;-79
2023/07/24 00:40:41;;;;;;;12.55;4.00;;;;;;;17.30;100.00;100262.25;5029159;28;20034;-78
2023/07/24 00:43:06;;;;;;;12.85;3.95;;;;;;;17.30;100.00;100262.25;5029148;28;20025;-77
2023/07/24 00:45:32;;;;;;;13.23;3.85;;;;;;;17.30;100.00;100259.53;5031976;28;20100;-76
2023/07/24 00:47:59;;;;;;;10.88;3.72;;;;;;;17.30;100.00;100253.25;5031828;28;20053;-76
2023/07/24 00:50:25;;;;;;;11.85;4.57;;;;;;;17.30;100.00;100247.84;5030632;28;20025;-77
2023/07/24 00:52:51;;;;;;;13.25;3.97;;;;;;;17.29;100.00;100254.28;5031323;28;20033;-76
2023/07/24 00:55:16;;;;;;;15.73;4.50;;;;;;;17.29;100.00;100243.41;5028947;28;20034;-76
2023/07/24 00:57:43;;;;;;;15.00;4.40;;;;;;;17.29;100.00;100244.28;5028089;28;20038;-76
2023/07/24 01:00:09;;;;;;;14.27;4.88;;;;;;;17.30;100.00;100255.97;5027982;28;20032;-76
2023/07/24 01:02:34;;;;;;;17.17;4.22;;;;;;;17.29;100.00;100248.84;5034836;28;20017;-76
2023/07/24 01:05:01;;;;;;;14.60;4.30;;;;;;;17.27;100.00;100237.31;5034214;28;20040;-76
2023/07/24 01:07:26;;;;;;;16.33;4.32;;;;;;;17.28;100.00;100231.72;5034239;28;20017;-76
2023/07/24 01:09:52;;;;;;;16.75;5.32;;;;;;;17.28;100.00;100220.84;5034196;28;20052;-76
2023/07/24 01:12:27;;;;;;;15.77;4.93;;;;;;;17.27;100.00;100231.88;5034967;28;20119;-76
2023/07/24 01:15:01;;;;;;;14.90;4.68;;;;;;;17.26;100.00;100222.91;5032679;28;20092;-76
2023/07/24 01:17:29;;;;;;;13.32;4.57;;;;;;;17.25;100.00;100220.34;5028708;28;20480;-77
2023/07/24 01:19:56;;;;;;;18.65;5.32;;;;;;;17.26;100.00;100216.59;5033371;28;20492;-76
2023/07/24 01:22:38;;;;;;;16.38;5.30;;;;;;;17.27;100.00;100218.31;5033638;28;20033;-77
2023/07/24 01:25:32;;;;;;;17.05;5.68;;;;;;;17.26;100.00;100224.75;5032341;28;20040;-76
2023/07/24 01:27:57;;;;;;;16.77;6.00;;;;;;;17.26;100.00;100222.91;5033628;28;20026;-77
2023/07/24 01:30:23;;;;;;;16.35;5.13;;;;;;;17.25;100.00;100204.06;5033358;28;20078;-77
2023/07/24 01:32:49;;;;;;;18.77;6.35;;;;;;;17.22;100.00;100216.09;5025664;28;20036;-77
2023/07/24 01:35:14;;;;;;;17.83;5.05;;;;;;;17.21;100.00;100213.56;5032259;28;20514;-78
2023/07/24 01:37:42;;;;;;;14.52;4.13;;;;;;;17.19;100.00;100207.44;5033060;28;20028;-77
2023/07/24 01:40:08;;;;;;;17.40;4.68;;;;;;;17.16;100.00;100219.50;5032018;28;20033;-77
2023/07/24 01:42:35;;;;;;;13.73;4.00;;;;;;;17.15;100.00;100204.22;5032292;28;20551;-78
2023/07/24 01:45:03;;;;;;;12.40;3.95;;;;;;;17.14;100.00;100204.41;5033456;28;20083;-77
2023/07/24 01:47:28;;;;;;;13.45;4.20;;;;;;;17.14;100.00;100207.13;5032162;28;20021;-77
2023/07/24 01:49:53;;;;;;;17.70;5.03;;;;;;;17.14;100.00;100198.97;5033256;28;20471;-77
2023/07/24 01:52:19;;;;;;;13.00;4.55;;;;;;;17.12;100.00;100188.28;5032651;28;20124;-77
2023/07/24 01:54:44;;;;;;;15.15;4.72;;;;;;;17.12;100.00;100180.97;5032011;28;20029;-77
2023/07/24 01:57:10;;;;;;;14.80;4.93;;;;;;;17.13;100.00;100184.56;5033807;28;20035;-78
2023/07/24 01:59:35;;;;;;;12.57;4.35;;;;;;;17.12;100.00;100172.00;5032216;28;20388;-78
2023/07/24 02:02:00;;;;;;;16.25;5.00;;;;;;;17.10;100.00;100172.16;5032643;28;20072;-77
2023/07/24 02:04:26;;;;;;;13.45;4.53;;;;;;;17.10;100.00;100174.88;5032702;28;20079;-77
2023/07/24 02:06:51;;;;;;;13.70;4.57;;;;;;;17.10;100.00;100164.03;5031588;28;20443;-77
2023/07/24 02:09:18;;;;;;;13.23;4.50;;;;;;;17.11;100.00;100160.28;5028214;28;20050;-77
2023/07/24 02:11:44;;;;;;;14.68;4.35;;;;;;;17.10;100.00;100161.31;5029972;28;20048;-77
2023/07/24 02:14:11;;;;;;;14.35;4.90;;;;;;;17.09;100.00;100156.88;5032445;28;20029;-78
2023/07/24 02:16:37;;;;;;;15.95;4.90;;;;;;;17.12;100.00;100153.81;5031401;28;20452;-77
2023/07/24 02:19:02;;;;;;;15.63;5.00;;;;;;;17.12;100.00;100156.53;5033613;28;20052;-77
2023/07/24 02:21:27;;;;;;;12.73;4.35;;;;;;;17.15;100.00;100154.53;5032258;28;20025;-77
2023/07/24 02:23:53;;;;;;;14.32;4.28;;;;;;;17.12;100.00;100156.53;5032338;28;20033;-77
2023/07/24 02:26:18;;;;;;;16.30;4.95;;;;;;;17.14;100.00;100155.53;5030515;28;20035;-77
2023/07/24 02:28:43;;;;;;;17.77;5.20;;;;;;;17.14;100.00;100156.38;5029063;28;20022;-77
2023/07/24 02:31:09;;;;;;;14.23;4.50;;;;;;;17.17;100.00;100152.47;5031857;28;20053;-77
2023/07/24 02:33:34;;;;;;;16.23;4.93;;;;;;;17.16;100.00;100145.34;5033434;28;20036;-77
2023/07/24 02:36:01;;;;;;;14.80;4.97;;;;;;;17.16;100.00;100156.19;5032987;28;20096;-77
2023/07/24 02:38:27;;;;;;;15.68;4.68;;;;;;;17.15;100.00;100163.50;5030778;28;20440;-77
2023/07/24 02:40:52;;;;;;;13.70;4.70;;;;;;;17.14;100.00;100172.66;5031789;28;20041;-77
2023/07/24 02:43:17;;;;;;;16.17;5.70;;;;;;;17.13;100.00;100179.13;5032290;28;20109;-77
2023/07/24 02:45:43;;;;;;;14.95;5.50;;;;;;;17.12;100.00;100170.13;5028663;28;20022;-78
2023/07/24 02:48:08;;;;;;;15.80;5.47;;;;;;;17.10;100.00;100155.00;5028118;28;20059;-78
2023/07/24 02:50:33;;;;;;;18.00;5.95;;;;;;;17.09;100.00;100139.75;5032825;28;20036;-78
2023/07/24 02:52:59;;;;;;;17.58;6.07;;;;;;;17.08;100.00;100149.75;5031459;28;20033;-78
2023/07/24 02:55:24;;;;;;;17.92;5.88;;;;;;;17.05;100.00;100141.97;5031179;28;20038;-79
2023/07/24 02:57:50;;;;;;;15.85;5.10;;;;;;;17.05;100.00;100150.09;5030890;28;20037;-77
2023/07/24 03:00:16;;;;;;;17.50;5.30;;;;;;;17.02;100.00;100152.34;5031410;28;20033;-77
2023/07/24 03:02:41;;;;;;;13.88;4.35;;;;;;;16.96;100.00;100156.56;5031271;28;20055;-77
2023/07/24 03:05:07;;;;;;;13.98;4.13;;;;;;;16.92;100.00;100150.63;5032373;28;20021;-77
2023/07/24 03:07:32;;;;;;;11.27;3.83;;;;;;;16.87;100.00;100127.72;5031391;28;20127;-77
2023/07/24 03:09:58;;;;;;;11.55;4.00;;;;;;;16.83;100.00;100123.66;5028038;28;20116;-78
2023/07/24 03:12:23;;;;;;;11.50;3.83;;;;;;;16.78;100.00;100124.16;5032720;28;20033;-78
2023/07/24 03:14:48;;;;;;;14.93;4.60;;;;;;;16.75;100.00;100133.50;5031671;28;20029;-78
2023/07/24 03:17:14;;;;;;;11.32;3.55;;;;;;;16.72;100.00;100143.81;5031051;28;20041;-78
2023/07/24 03:19:40;;;;;;;13.85;4.13;;;;;;;16.67;100.00;100157.91;5028409;28;20087;-78
2023/07/24 03:22:06;;;;;;;12.48;3.83;;;;;;;16.64;100.00;100157.41;5031634;28;20036;-78
2023/07/24 03:24:31;;;;;;;9.32;3.53;;;;;;;16.58;100.00;100150.78;5030545;28;20025;-78
2023/07/24 03:26:56;;;;;;;14.05;4.00;;;;;;;16.52;100.00;100135.19;5032223;28;20025;-78
2023/07/24 03:29:22;;;;;;;12.98;3.70;;;;;;;16.48;100.00;100129.25;5032324;28;20113;-78
2023/07/24 03:31:47;;;;;;;13.35;3.75;;;;;;;16.45;100.00;100124.16;5032256;28;20080;-78
2023/07/24 03:34:12;;;;;;;12.50;4.32;;;;;;;16.42;100.00;100130.75;5029140;28;20775;-77
2023/07/24 03:36:41;;;;;;;14.95;3.85;;;;;;;16.42;100.00;100122.63;5030487;28;20494;-78
2023/07/24 03:39:06;;;;;;;12.90;3.80;;;;;;;16.41;100.00;100120.09;5032452;28;20056;-78
2023/07/24 03:41:32;;;;;;;13.43;4.22;;;;;;;16.38;100.00;100117.72;5030780;28;20417;-78
2023/07/24 03:43:57;;;;;;;10.63;3.72;;;;;;;16.36;100.00;100122.47;5030224;28;20408;-78
2023/07/24 03:46:22;;;;;;;12.85;4.78;;;;;;;16.33;100.00;100123.66;5030570;28;20025;-78
2023/07/24 03:48:49;;;;;;;13.60;4.03;;;;;;;16.33;100.00;100122.81;5030855;28;20396;-77
2023/07/24 03:51:15;;;;;;;12.30;4.13;;;;;;;16.31;100.00;100122.09;5031974;28;20078;-77
2023/07/24 03:53:40;;;;;;;11.55;3.65;;;;;;;16.29;100.00;100118.72;5029477;28;20175;-77
2023/07/24 03:56:05;;;;;;;12.15;3.60;;;;;;;16.27;100.00;100118.91;5031545;28;20033;-78
2023/07/24 03:58:31;;;;;;;13.63;3.70;;;;;;;16.26;100.00;100122.63;5030615;28;20029;-77
2023/07/24 04:00:56;;;;;;;14.23;4.20;;;;;;;16.26;100.00;100128.03;5031903;28;20029;-77
2023/07/24 04:03:21;;;;;;;11.77;3.70;;;;;;;16.28;100.00;100134.13;5029599;28;20543;-78
2023/07/24 04:05:47;;;;;;;13.35;3.88;;;;;;;16.27;100.00;100137.88;5030885;28;20531;-77
2023/07/24 04:08:12;;;;;;;12.95;4.32;;;;;;;16.30;100.00;100140.25;5030540;28;20464;-78
2023/07/24 04:10:37;;;;;;;12.05;3.92;;;;;;;16.31;100.00;100141.97;5029343;28;20017;-77
2023/07/24 04:13:03;;;;;;;14.95;4.40;;;;;;;16.29;100.00;100135.84;5031721;28;20393;-78
2023/07/24 04:15:28;;;;;;;12.07;3.88;;;;;;;16.29;100.00;100149.41;5029610;28;20464;-78
2023/07/24 04:17:53;;;;;;;15.93;4.72;;;;;;;16.27;100.00;100145.16;5030189;28;20037;-78
2023/07/24 04:20:19;;;;;;;13.10;4.47;;;;;;;16.26;100.00;100149.72;5031729;28;20472;-78
2023/07/24 04:22:44;;;;;;;12.80;4.45;;;;;;;16.26;100.00;100144.31;5031827;28;20377;-78
2023/07/24 04:25:09;;;;;;;13.02;3.92;;;;;;;16.23;100.00;100150.91;5029219;28;20017;-78
2023/07/24 04:27:34;;;;;;;13.75;4.32;;;;;;;16.22;100.00;100140.22;5028737;28;20021;-78
2023/07/24 04:30:00;;;;;;;14.75;4.55;;;;;;;16.20;100.00;100145.81;5031430;28;20071;-78
2023/07/24 04:32:28;;;;;;;12.05;3.78;;;;;;;16.20;100.00;100145.81;5029738;28;20424;-78
2023/07/24 04:34:54;;;;;;;13.90;4.65;;;;;;;16.19;100.00;100160.41;5033237;28;20393;-78
2023/07/24 04:37:19;;;;;;;13.50;4.53;;;;;;;16.18;100.00;100157.84;5033224;28;20080;-78
2023/07/24 04:39:44;;;;;;;14.88;4.32;;;;;;;16.16;100.00;100165.31;5034688;28;20029;-78
2023/07/24 04:42:10;;;;;;;12.23;4.30;;;;;;;16.14;100.00;100153.78;5035336;28;20029;-78
2023/07/24 04:44:35;;;;;;;13.02;4.63;;;;;;;16.11;100.00;100151.41;5050605;28;20021;-77
2023/07/24 04:47:02;;;;;;;12.82;4.07;;;;;;;16.10;100.00;100155.97;5033863;28;20055;-77
2023/07/24 04:49:30;;;;;;;12.95;4.53;;;;;;;16.07;100.00;100154.44;5032792;28;20083;-77
2023/07/24 04:51:56;;;;;;;11.80;4.43;;;;;;;16.06;100.00;100162.72;5033844;28;20558;-78
2023/07/24 04:54:21;;;;;;;13.85;4.93;;;;;;;16.03;100.00;100147.66;5033771;28;20022;-78
2023/07/24 04:56:46;;;;;;;15.07;4.78;;;;;;;16.01;100.00;100152.38;5035076;28;20389;-78
2023/07/24 04:59:12;;;;;;;14.07;4.75;;;;;;;16.00;100.00;100149.84;5033060;28;20124;-78
2023/07/24 05:01:37;;;;;;;12.35;4.50;;;;;;;15.96;100.00;100143.91;5034137;28;20013;-77
2023/07/24 05:04:03;;;;;;;14.63;4.88;;;;;;;15.97;100.00;100137.47;5033238;28;20036;-78
2023/07/24 05:06:28;;;;;;;15.68;5.32;;;;;;;15.97;100.00;100140.16;5032652;28;20029;-77
2023/07/24 05:08:53;;;;;;;13.32;5.00;;;;;;;15.97;100.00;100152.88;5034475;28;20033;-77
2023/07/24 05:11:19;;;;;;;11.55;4.60;;;;;;;15.96;100.00;100149.34;5033437;28;20384;-77
2023/07/24 05:13:44;;;;;;;17.40;4.72;;;;;;;15.98;100.00;100151.88;5033446;28;20439;-76
2023/07/24 05:16:09;;;;;;;17.83;6.15;;;;;;;16.00;100.00;100156.13;5032595;28;20047;-77
2023/07/24 05:18:35;;;;;;;15.50;5.30;;;;;;;15.99;100.00;100164.41;5034247;28;20104;-77
2023/07/24 05:21:00;;;;;;;13.93;4.80;;;;;;;15.94;100.00;100161.34;5031634;28;20396;-77
2023/07/24 05:23:25;;;;;;;14.18;5.18;;;;;;;15.95;100.00;100166.59;5030843;28;20024;-77
2023/07/24 05:25:58;;;;;;;18.48;5.50;;;;;;;15.99;100.00;100164.41;5033410;28;20418;-77
2023/07/24 05:28:27;;;;;;;16.15;5.88;;;;;;;15.97;100.00;100164.56;5029787;28;20044;-77
2023/07/24 05:30:53;;;;;;;18.20;6.30;;;;;;;15.98;100.00;100166.25;5034692;28;20039;-77
2023/07/24 05:33:18;;;;;;;18.00;6.32;;;;;;;15.98;100.00;100160.84;5034628;28;20021;-77
2023/07/24 05:35:44;;;;;;;15.95;6.05;;;;;;;16.02;100.00;100164.94;5032685;28;20048;-76
2023/07/24 05:38:09;;;;;;;19.05;6.75;;;;;;;16.06;100.00;100166.31;5048420;28;20079;-77
2023/07/24 05:40:35;;;;;;;17.58;7.10;;;;;;;16.07;100.00;100169.84;5033529;28;20036;-77
2023/07/24 05:43:00;;;;;;;17.00;6.70;;;;;;;16.11;100.00;100167.69;5034357;28;20510;-77
2023/07/24 05:45:27;;;;;;;17.40;6.68;;;;;;;16.16;100.00;100170.72;5033437;28;20079;-77
2023/07/24 05:47:52;;;;;;;18.20;6.57;;;;;;;16.18;100.00;100174.09;5033022;28;20033;-77
2023/07/24 05:50:18;;;;;;;18.15;6.10;;;;;;;16.17;100.00;100167.00;5032144;28;20393;-77
2023/07/24 05:52:43;;;;;;;17.42;6.60;;;;;;;16.22;100.00;100186.31;5027925;28;20550;-77
2023/07/24 05:55:09;;;;;;;19.10;6.20;;;;;;;16.20;100.00;100178.34;5030359;28;20060;-77
2023/07/24 05:57:35;;;;;;;17.35;6.40;;;;;;;16.23;100.00;100188.03;5033639;28;20033;-77
2023/07/24 06:00:00;;;;;;;19.27;6.70;;;;;;;16.24;100.00;100187.03;5032743;28;20038;-76
2023/07/24 06:02:25;;;;;;;17.63;6.03;;;;;;;16.26;100.00;100184.97;5032638;28;20021;-76
2023/07/24 06:04:51;;;;;;;16.30;6.07;;;;;;;16.28;100.00;100180.22;5032212;28;20120;-77
2023/07/24 06:07:16;;;;;;;17.92;6.47;;;;;;;16.33;100.00;100183.31;5033602;28;20097;-77
2023/07/24 06:09:41;;;;;;;19.70;6.93;;;;;;;16.33;100.00;100182.47;5031580;28;20033;-77
2023/07/24 06:12:07;;;;;;;18.83;6.40;;;;;;;16.37;100.00;100192.81;5033572;28;20075;-76
2023/07/24 06:14:32;;;;;;;17.58;6.28;;;;;;;16.43;100.00;100194.84;5031761;28;20028;-76
2023/07/24 06:16:57;;;;;;;18.25;5.90;;;;;;;16.48;100.00;100191.63;5033353;28;20053;-76
2023/07/24 06:19:23;;;;;;;18.05;6.78;;;;;;;16.54;100.00;100196.38;5031105;28;20028;-77
2023/07/24 06:21:48;;;;;;;17.67;6.22;;;;;;;16.60;100.00;100195.72;5031355;28;20110;-76
2023/07/24 06:24:13;;;;;;;19.08;6.60;;;;;;;16.65;100.00;100195.22;5032402;28;20053;-77
2023/07/24 06:26:39;;;;;;;18.95;5.88;;;;;;;16.73;100.00;100188.94;5031970;28;20104;-77
2023/07/24 06:29:05;;;;;;;16.15;6.05;;;;;;;16.75;100.00;100198.63;5031974;28;20032;-77
2023/07/24 06:31:30;;;;;;;18.75;6.35;;;;;;;16.80;100.00;100194.56;5032787;28;20025;-76
2023/07/24 06:33:55;;;;;;;18.05;6.03;;;;;;;16.86;100.00;100191.16;5030878;28;20104;-76
2023/07/24 06:36:21;;;;;;;16.45;5.47;;;;;;;16.86;100.00;100197.41;5030666;28;20076;-77
2023/07/24 06:38:47;;;;;;;14.80;4.95;;;;;;;16.91;100.00;100191.50;5030037;28;20029;-76
2023/07/24 06:41:15;;;;;;;17.80;6.07;;;;;;;16.93;100.00;100194.91;5030089;28;20116;-77
2023/07/24 06:43:41;;;;;;;16.50;5.72;;;;;;;16.93;100.00;100197.63;5032617;28;20025;-77
2023/07/24 06:46:06;;;;;;;15.10;5.40;;;;;;;16.92;100.00;100193.22;5031476;28;20056;-78
2023/07/24 06:48:32;;;;;;;17.25;5.68;;;;;;;16.91;100.00;100191.50;5030443;28;20128;-77
2023/07/24 06:50:57;;;;;;;16.33;5.18;;;;;;;16.91;100.00;100186.06;5032260;28;20049;-79
2023/07/24 06:53:22;;;;;;;16.95;5.40;;;;;;;16.90;100.00;100192.56;5033970;28;20041;-78
2023/07/24 06:55:47;;;;;;;16.60;5.43;;;;;;;16.88;100.00;100194.56;5032376;28;20033;-75
2023/07/24 06:58:13;;;;;;;15.23;4.97;;;;;;;16.87;100.00;100188.31;5031026;28;20078;-79
2023/07/24 07:00:38;;;;;;;13.32;4.88;;;;;;;16.86;100.00;100193.88;5031232;28;20031;-79
2023/07/24 07:03:03;;;;;;;14.52;4.78;;;;;;;16.83;100.00;100184.19;5028219;28;20021;-79
2023/07/24 07:05:31;;;;;;;13.13;5.20;;;;;;;16.84;100.00;100190.47;5030797;28;20488;-80
2023/07/24 07:07:56;;;;;;;15.52;4.95;;;;;;;16.83;100.00;100186.06;5029054;28;20044;-78
2023/07/24 07:10:21;;;;;;;14.00;4.63;;;;;;;16.83;100.00;100194.22;5032189;28;20025;-76
2023/07/24 07:12:47;;;;;;;15.70;5.20;;;;;;;16.85;100.00;100192.16;5031199;28;20029;-79
2023/07/24 07:15:12;;;;;;;16.02;4.80;;;;;;;16.86;100.00;100189.28;5032395;28;20061;-78
2023/07/24 07:17:37;;;;;;;12.38;4.18;;;;;;;16.85;100.00;100186.75;5030586;28;20029;-79
2023/07/24 07:20:03;;;;;;;12.38;4.10;;;;;;;16.81;100.00;100190.81;5031528;28;20033;-79
2023/07/24 07:22:28;;;;;;;15.65;5.07;;;;;;;16.78;100.00;100186.59;5030483;28;20384;-80
2023/07/24 07:24:54;;;;;;;12.90;4.25;;;;;;;16.77;100.00;100176.75;5031490;28;20108;-79
2023/07/24 07:27:19;;;;;;;16.45;4.80;;;;;;;16.73;100.00;100183.50;5024220;28;20493;-79
2023/07/24 07:29:44;;;;;;;12.70;4.13;;;;;;;16.72;100.00;100182.69;5027685;28;20115;-79
2023/07/24 07:32:10;;;;;;;13.65;4.20;;;;;;;16.73;100.00;100184.34;5031052;28;20037;-79
2023/07/24 07:34:36;;;;;;;10.93;3.60;;;;;;;16.74;100.00;100188.78;5032326;28;20079;-80
2023/07/24 07:37:01;;;;;;;12.35;3.42;;;;;;;16.83;100.00;100188.78;5026723;28;20080;-79
2023/07/24 07:39:27;;;;;;;10.43;3.65;;;;;;;16.89;100.00;100207.97;5027150;28;20116;-79
2023/07/24 07:41:52;;;;;;;11.60;3.97;;;;;;;16.95;100.00;100192.88;5031899;28;20116;-78
2023/07/24 07:44:17;;;;;;;11.80;3.50;;;;;;;16.96;100.00;100183.72;5032078;28;20495;-79
2023/07/24 07:46:43;;;;;;;12.57;4.03;;;;;;;17.03;100.00;100184.72;5032045;28;20025;-79
2023/07/24 07:49:08;;;;;;;14.07;4.30;;;;;;;17.05;100.00;100182.69;5030223;28;20033;-78
2023/07/24 07:51:33;;;;;;;13.05;4.32;;;;;;;17.12;100.00;100180.97;5023028;28;20035;-78
2023/07/24 07:53:59;;;;;;;11.63;3.78;;;;;;;17.23;100.00;100179.78;5027249;28;20047;-79
2023/07/24 07:56:24;;;;;;;15.65;4.78;;;;;;;17.24;100.00;100180.63;5028089;28;20366;-78
2023/07/24 07:58:49;;;;;;;10.82;3.97;;;;;;;17.30;100.00;100180.78;5032017;28;20036;-78
2023/07/24 08:01:15;;;;;;;14.50;4.78;;;;;;;17.33;100.00;100187.72;5030839;28;20496;-79
2023/07/24 08:03:40;;;;;;;16.08;5.35;;;;;;;17.36;100.00;100192.81;5032333;28;20037;-78
2023/07/24 08:06:06;;;;;;;16.08;5.03;;;;;;;17.41;100.00;100193.16;5030516;28;20058;-78
2023/07/24 08:08:31;;;;;;;14.55;5.13;;;;;;;17.36;100.00;100190.09;5025752;28;20495;-78
2023/07/24 08:10:57;;;;;;;18.10;6.05;;;;;;;17.41;100.00;100184.13;5030412;28;20121;-79
2023/07/24 08:13:22;;;;;;;16.95;5.45;;;;;;;17.38;100.00;100189.94;5031827;28;20472;-78
2023/07/24 08:15:49;;;;;;;16.00;5.32;;;;;;;17.37;100.00;100191.81;5031644;28;20408;-79
2023/07/24 08:18:14;;;;;;;14.15;5.05;;;;;;;17.36;100.00;100184.66;5031861;28;20029;-78
2023/07/24 08:20:40;;;;;;;15.35;5.60;;;;;;;17.37;100.00;100175.50;5030618;28;20500;-78
2023/07/24 08:23:05;;;;;;;18.63;5.78;;;;;;;17.38;100.00;100177.22;5030518;28;20017;-79
2023/07/24 08:25:30;;;;;;;17.15;6.80;;;;;;;17.40;100.00;100172.44;5029076;28;20112;-79
2023/07/24 08:27:56;;;;;;;19.73;8.10;;;;;;;17.44;100.00;100181.09;5030735;28;20034;-79
2023/07/24 08:30:21;;;;;;;17.55;6.78;;;;;;;17.50;100.00;100174.09;5030957;28;20021;-79
2023/07/24 08:32:46;;;;;;;18.88;6.53;;;;;;;17.51;100.00;100182.09;5030289;28;20030;-78
2023/07/24 08:35:12;;;;;;;20.67;7.40;;;;;;;17.58;100.00;100176.81;5030440;28;20033;-78
2023/07/24 08:37:37;;;;;;;21.13;6.80;;;;;;;17.61;100.00;100184.59;5030471;28;20057;-79
2023/07/24 08:40:03;;;;;;;22.33;8.15;;;;;;;17.58;100.00;100187.66;5029364;28;20535;-79
2023/07/24 08:42:31;;;;;;;18.40;7.40;;;;;;;17.59;100.00;100184.78;5030285;28;20031;-79
2023/07/24 08:44:58;;;;;;;19.80;6.97;;;;;;;17.62;100.00;100187.16;5031525;28;20017;-78
2023/07/24 08:47:24;;;;;;;19.77;6.80;;;;;;;17.67;100.00;100188.50;5031531;28;20037;-79
2023/07/24 08:49:50;;;;;;;19.85;7.13;;;;;;;17.68;100.00;100190.19;5031520;28;20037;-79
2023/07/24 08:52:16;;;;;;;17.02;6.53;;;;;;;17.71;100.00;100182.53;5029201;28;20048;-79
2023/07/24 08:54:43;;;;;;;19.50;6.72;;;;;;;17.69;100.00;100179.16;5031105;28;20108;-79
2023/07/24 08:57:08;;;;;;;20.67;7.25;;;;;;;17.73;100.00;100176.91;5028872;28;20033;-79
2023/07/24 08:59:34;;;;;;;21.20;7.60;;;;;;;17.72;100.00;100172.53;5028643;28;20037;-79
2023/07/24 09:02:00;;;;;;;18.25;7.22;;;;;;;17.69;100.00;100173.72;5030174;28;20052;-79
2023/07/24 09:04:26;;;;;;;16.23;6.55;;;;;;;17.62;100.00;100172.72;5031392;28;20033;-78
2023/07/24 09:06:52;;;;;;;17.90;5.88;;;;;;;17.60;100.00;100161.16;5029792;28;20017;-78
2023/07/24 09:09:18;;;;;;;23.42;7.15;;;;;;;17.60;100.00;100153.00;5029790;28;20021;-78
2023/07/24 09:11:52;;;;;;;19.17;7.60;;;;;;;17.64;100.00;100151.63;5031117;28;20026;-78
2023/07/24 09:14:25;;;;;;;18.92;7.25;;;;;;;17.72;100.00;100146.19;5029506;28;20032;-79
2023/07/24 09:17:08;;;;;;;18.38;6.47;;;;;;;17.76;100.00;100136.66;5031116;28;20501;-79
2023/07/24 09:19:35;;;;;;;18.30;6.20;;;;;;;17.90;100.00;100145.13;5031415;28;20033;-78
2023/07/24 09:22:12;;;;;;;18.52;5.78;;;;;;;17.95;100.00;100137.25;5034719;28;20048;-79
2023/07/24 09:24:38;;;;;;;12.80;4.32;;;;;;;17.97;100.00;100144.22;5033543;28;20405;-79
2023/07/24 09:27:07;;;;;;;15.15;4.93;;;;;;;18.02;100.00;100135.53;5034126;28;20034;-78
2023/07/24 09:29:33;;;;;;;13.10;4.55;;;;;;;18.05;100.00;100134.31;5049588;28;20175;-79
2023/07/24 09:31:59;;;;;;;14.38;5.03;;;;;;;17.99;100.00;100131.31;5040540;28;20081;-77
2023/07/24 09:34:25;;;;;;;14.45;5.18;;;;;;;18.01;100.00;100130.25;5033361;28;20381;-78
2023/07/24 09:36:51;;;;;;;13.73;4.20;;;;;;;17.97;100.00;100122.47;5034526;28;20040;-78
2023/07/24 09:39:28;;;;;;;11.18;4.22;;;;;;;17.91;100.00;100117.75;5033183;28;20070;-78
2023/07/24 09:41:54;;;;;;;13.95;4.78;;;;;;;17.89;100.00;100108.03;5030062;28;20032;-79
2023/07/24 09:44:20;;;;;;;13.10;4.32;;;;;;;17.92;100.00;100110.44;5030686;28;20029;-73
2023/07/24 09:46:45;;;;;;;13.00;4.53;;;;;;;17.93;100.00;100109.41;5033006;28;20026;-73
2023/07/24 09:49:11;;;;;;;10.90;4.50;;;;;;;17.93;100.00;100093.94;5031748;28;20036;-74
2023/07/24 09:51:37;;;;;;;14.68;4.63;;;;;;;17.91;100.00;100092.44;5021267;28;20431;-74
2023/07/24 09:54:24;;;;;;;13.80;4.53;;;;;;;17.88;100.00;100092.75;5033406;28;20033;-72
2023/07/24 09:56:51;;;;;;;14.40;4.70;;;;;;;17.88;100.00;100092.75;5035487;28;20052;-74
2023/07/24 09:59:17;;;;;;;13.23;4.88;;;;;;;17.85;100.00;100087.66;5034418;28;20021;-74
2023/07/24 10:01:43;;;;;;;13.23;4.40;;;;;;;17.82;100.00;100087.00;5026441;28;20029;-75
2023/07/24 10:04:09;;;;;;;12.90;4.45;;;;;;;17.76;100.00;100090.47;5028681;28;20029;-76
2023/07/24 10:06:35;;;;;;;12.85;4.68;;;;;;;17.72;100.00;100099.16;5029820;28;20033;-74
2023/07/24 10:09:00;;;;;;;15.10;5.32;;;;;;;17.75;100.00;100088.75;5028773;28;20128;-73
2023/07/24 10:11:26;;;;;;;14.35;5.22;;;;;;;17.71;100.00;100109.16;5026141;28;20025;-72
2023/07/24 10:13:53;;;;;;;15.63;4.88;;;;;;;17.70;100.00;100120.19;5035948;28;20393;-72
2023/07/24 10:16:18;;;;;;;15.35;5.20;;;;;;;17.67;100.00;100113.25;5036881;28;20049;-71
2023/07/24 10:18:45;;;;;;;12.98;4.30;;;;;;;17.68;100.00;100114.94;5034757;28;20030;-71
2023/07/24 10:21:11;;;;;;;16.27;5.55;;;;;;;17.63;100.00;100111.94;5035881;28;20418;-71
2023/07/24 10:23:41;;;;;;;15.90;5.18;;;;;;;17.60;100.00;100120.41;5035137;28;20125;-72
2023/07/24 10:26:08;;;;;;;13.52;4.25;;;;;;;17.58;100.00;100122.47;5036659;28;20088;-71
2023/07/24 10:28:38;;;;;;;17.27;5.13;;;;;;;17.57;100.00;100118.03;5036824;28;20469;-71
2023/07/24 10:31:19;;;;;;;13.88;5.25;;;;;;;17.55;100.00;100120.09;5036768;28;20024;-76
2023/07/24 10:33:45;;;;;;;14.45;4.90;;;;;;;17.53;100.00;100124.88;5030418;28;20040;-75
2023/07/24 10:36:13;;;;;;;19.35;5.85;;;;;;;17.53;100.00;100117.56;5032564;28;20086;-76
2023/07/24 10:38:42;;;;;;;17.88;6.47;;;;;;;17.54;100.00;100116.53;5031247;28;20021;-76
2023/07/24 10:41:10;;;;;;;16.60;5.57;;;;;;;17.60;100.00;100115.84;5031857;28;20095;-76
2023/07/24 10:43:46;;;;;;;18.02;6.13;;;;;;;17.65;100.00;100115.31;5032569;28;20465;-76
2023/07/24 10:46:12;;;;;;;16.05;5.80;;;;;;;17.72;100.00;100127.16;5027789;28;20125;-76
2023/07/24 10:48:42;;;;;;;15.13;5.45;;;;;;;17.82;100.00;100135.94;5031643;28;20628;-76
2023/07/24 10:51:09;;;;;;;12.32;4.63;;;;;;;17.88;100.00;100147.97;5031419;28;20033;-76
2023/07/24 10:53:36;;;;;;;15.13;5.45;;;;;;;17.96;100.00;100136.25;5032723;28;20434;-76
2023/07/24 10:56:02;;;;;;;14.88;5.35;;;;;;;17.98;100.00;100134.22;5030229;28;20040;-76
2023/07/24 10:58:27;;;;;;;15.70;5.03;;;;;;;18.01;100.00;100132.97;5034833;28;20025;-75
2023/07/24 11:00:53;;;;;;;14.65;4.82;;;;;;;18.04;100.00;100135.34;5033904;28;20033;-76
2023/07/24 11:03:19;;;;;;;16.23;6.15;;;;;;;18.06;100.00;100144.19;5030038;28;20021;-78
2023/07/24 11:05:46;;;;;;;17.50;5.68;;;;;;;18.10;100.00;100151.81;5028790;28;20036;-75